createdAt,value
2019-02-08T00:01:48.326Z,1.93
2019-02-08T00:04:18.093Z,1.37
2019-02-08T00:06:47.869Z,1.23
2019-02-08T00:09:17.486Z,0.63
2019-02-08T00:11:47.358Z,2.50
2019-02-08T00:14:16.942Z,1.93
2019-02-08T00:16:46.640Z,1.53
2019-02-08T00:19:16.275Z,2.30
2019-02-08T00:21:46.181Z,2.57
2019-02-08T00:24:16.089Z,1.30
2019-02-08T00:26:45.707Z,1.97
2019-02-08T00:29:16.375Z,1.50
2019-02-08T00:31:46.000Z,2.00
2019-02-08T00:34:15.708Z,2.33
2019-02-08T00:36:45.483Z,1.80
2019-02-08T00:39:15.429Z,1.27
2019-02-08T00:41:45.009Z,1.83
2019-02-08T00:44:14.610Z,2.03
2019-02-08T00:46:44.579Z,2.10
2019-02-08T00:49:14.283Z,1.13
2019-02-08T00:51:43.858Z,2.10
2019-02-08T00:54:13.472Z,1.77
2019-02-08T00:56:43.272Z,2.83
2019-02-08T00:59:12.912Z,2.70
2019-02-08T01:01:42.659Z,1.23
2019-02-08T01:04:12.244Z,2.07
2019-02-08T01:06:41.973Z,2.07
2019-02-08T01:09:11.770Z,1.10
2019-02-08T01:11:41.506Z,0.57
2019-02-08T01:14:11.972Z,1.90
2019-02-08T01:16:41.918Z,2.10
2019-02-08T01:19:11.771Z,1.60
2019-02-08T01:21:41.545Z,4.00
2019-02-08T01:24:11.384Z,3.30
2019-02-08T01:26:41.234Z,2.43
2019-02-08T01:29:10.961Z,3.03
2019-02-08T01:31:40.869Z,3.67
2019-02-08T01:34:10.507Z,2.60
2019-02-08T01:36:40.570Z,3.23
2019-02-08T01:39:10.766Z,3.10
2019-02-08T01:41:40.646Z,2.50
2019-02-08T01:44:10.763Z,3.77
2019-02-08T01:46:40.676Z,3.47
2019-02-08T01:49:11.731Z,3.27
2019-02-08T01:51:41.518Z,4.07
2019-02-08T01:54:11.563Z,1.57
2019-02-08T01:56:41.847Z,2.67
2019-02-08T01:59:11.620Z,4.47
2019-02-08T02:01:41.808Z,3.27
2019-02-08T02:04:11.590Z,1.30
2019-02-08T02:06:41.507Z,4.30
2019-02-08T02:09:11.464Z,4.27
2019-02-08T02:11:41.339Z,4.50
2019-02-08T02:14:11.168Z,3.43
2019-02-08T02:16:41.328Z,2.60
2019-02-08T02:19:11.071Z,5.07
2019-02-08T02:21:41.237Z,2.40
2019-02-08T02:24:11.057Z,4.07
2019-02-08T02:26:40.852Z,4.77
2019-02-08T02:29:11.822Z,4.90
2019-02-08T02:31:42.983Z,3.10
2019-02-08T02:34:12.878Z,2.03
2019-02-08T02:36:42.802Z,4.07
2019-02-08T02:39:12.646Z,4.50
2019-02-08T02:41:43.325Z,2.70
2019-02-08T02:44:13.175Z,4.50
2019-02-08T02:46:43.452Z,1.33
2019-02-08T02:49:13.430Z,3.20
2019-02-08T02:51:43.596Z,4.93
2019-02-08T02:54:13.351Z,3.47
2019-02-08T02:56:43.201Z,3.83
2019-02-08T02:59:12.713Z,3.77
2019-02-08T03:01:42.949Z,2.03
2019-02-08T03:04:12.706Z,4.80
2019-02-08T03:06:42.676Z,4.67
2019-02-08T03:09:12.535Z,3.37
2019-02-08T03:11:42.663Z,4.40
2019-02-08T03:14:12.525Z,4.60
2019-02-08T03:16:42.719Z,4.43
2019-02-08T03:19:12.535Z,3.30
2019-02-08T03:21:42.366Z,3.80
2019-02-08T03:24:13.162Z,4.03
2019-02-08T03:26:43.459Z,3.90
2019-02-08T03:29:13.579Z,3.63
2019-02-08T03:31:43.387Z,3.73
2019-02-08T03:34:14.679Z,1.70
2019-02-08T03:36:44.866Z,4.93
2019-02-08T03:39:14.909Z,3.40
2019-02-08T03:41:44.804Z,4.30
2019-02-08T03:44:14.968Z,4.70
2019-02-08T03:46:45.209Z,5.20
2019-02-08T03:49:15.087Z,4.13
2019-02-08T03:51:45.236Z,4.37
2019-02-08T03:54:20.974Z,5.13
2019-02-08T03:56:47.115Z,2.77
2019-02-08T03:59:17.439Z,3.70
2019-02-08T04:01:47.577Z,2.30
2019-02-08T04:04:18.307Z,4.07
2019-02-08T04:06:48.125Z,3.87
2019-02-08T04:09:18.093Z,4.37
2019-02-08T04:11:48.106Z,3.80
2019-02-08T04:14:17.866Z,4.20
2019-02-08T04:16:47.706Z,4.97
2019-02-08T04:19:17.681Z,3.50
2019-02-08T04:21:47.757Z,5.07
2019-02-08T04:24:17.595Z,3.40
2019-02-08T04:26:47.352Z,3.90
2019-02-08T04:29:19.165Z,4.00
2019-02-08T04:31:49.986Z,4.30
2019-02-08T04:34:19.780Z,2.87
2019-02-08T04:36:49.619Z,4.47
2019-02-08T04:39:26.673Z,4.70
2019-02-08T04:41:56.548Z,3.47
2019-02-08T04:44:26.265Z,4.00
2019-02-08T04:46:56.362Z,3.50
2019-02-08T04:49:26.149Z,3.43
2019-02-08T04:51:56.228Z,3.40
2019-02-08T04:54:26.238Z,4.00
2019-02-08T04:56:56.027Z,2.73
2019-02-08T04:59:26.031Z,3.40
2019-02-08T05:01:55.743Z,3.60
2019-02-08T05:04:25.995Z,4.77
2019-02-08T05:06:56.168Z,3.00
2019-02-08T05:09:26.019Z,3.37
2019-02-08T05:11:56.123Z,2.83
2019-02-08T05:14:26.269Z,3.90
2019-02-08T05:16:57.240Z,3.63
2019-02-08T05:19:27.069Z,2.63
2019-02-08T05:21:57.149Z,3.43
2019-02-08T05:24:26.963Z,1.40
2019-02-08T05:26:57.971Z,3.23
2019-02-08T05:29:27.840Z,3.20
2019-02-08T05:31:57.639Z,2.50
2019-02-08T05:34:27.482Z,3.53
2019-02-08T05:36:57.832Z,2.87
2019-02-08T05:39:28.085Z,2.93
2019-02-08T05:41:57.935Z,2.70
2019-02-08T05:44:28.072Z,2.23
2019-02-08T05:46:57.920Z,2.63
2019-02-08T05:49:27.824Z,2.80
2019-02-08T05:51:57.688Z,2.50
2019-02-08T05:54:27.403Z,1.17
2019-02-08T05:56:57.282Z,3.10
2019-02-08T05:59:27.408Z,0.83
2019-02-08T06:01:57.214Z,2.50
2019-02-08T06:04:27.775Z,3.50
2019-02-08T06:06:58.338Z,2.50
2019-02-08T06:09:28.481Z,3.07
2019-02-08T06:11:58.827Z,2.73
2019-02-08T06:14:29.062Z,3.23
2019-02-08T06:16:59.132Z,3.27
2019-02-08T06:19:29.166Z,3.33
2019-02-08T06:21:59.354Z,3.23
2019-02-08T06:24:29.165Z,3.37
2019-02-08T06:26:58.884Z,3.27
2019-02-08T06:29:28.819Z,3.20
2019-02-08T06:31:58.790Z,2.80
2019-02-08T06:34:28.816Z,3.37
2019-02-08T06:37:00.226Z,3.90
2019-02-08T06:39:31.192Z,2.17
2019-02-08T06:42:12.105Z,4.13
2019-02-08T06:44:42.022Z,3.07
2019-02-08T06:47:12.018Z,2.57
2019-02-08T06:49:42.126Z,2.73
2019-02-08T06:52:12.372Z,3.27
2019-02-08T06:55:31.907Z,2.33
2019-02-08T06:58:25.971Z,3.17
2019-02-08T07:01:17.780Z,2.53
2019-02-08T07:04:13.419Z,3.27
2019-02-08T07:07:01.294Z,3.03
2019-02-08T07:10:02.025Z,2.97
2019-02-08T07:12:59.548Z,1.23
2019-02-08T07:15:48.381Z,4.10
2019-02-08T07:18:33.627Z,2.97
2019-02-08T07:21:40.327Z,1.90
2019-02-08T07:24:20.459Z,3.37
2019-02-08T07:27:12.291Z,3.13
2019-02-08T07:30:09.850Z,3.50
2019-02-08T07:32:52.137Z,2.80
2019-02-08T07:35:40.229Z,3.47
2019-02-08T07:38:37.876Z,3.33
2019-02-08T07:41:27.714Z,2.17
2019-02-08T07:44:16.242Z,3.20
2019-02-08T07:47:05.830Z,1.97
2019-02-08T07:50:14.342Z,3.00
2019-02-08T07:53:18.938Z,3.50
2019-02-08T07:56:09.014Z,3.70
2019-02-08T07:59:13.022Z,3.67
2019-02-08T08:02:10.921Z,1.27
2019-02-08T08:05:14.576Z,3.73
2019-02-08T08:08:01.900Z,3.03
2019-02-08T08:11:03.355Z,4.33
2019-02-08T08:13:39.189Z,3.70
2019-02-08T08:16:27.858Z,3.53
2019-02-08T08:19:14.067Z,1.87
2019-02-08T08:21:55.398Z,3.53
2019-02-08T08:24:47.933Z,3.70
2019-02-08T08:27:28.465Z,3.80
2019-02-08T08:30:24.738Z,4.70
2019-02-08T08:33:18.766Z,4.50
2019-02-08T08:36:35.547Z,3.83
2019-02-08T08:39:39.425Z,3.60
2019-02-08T08:43:08.250Z,2.23
2019-02-08T08:46:16.038Z,4.80
2019-02-08T08:49:02.830Z,5.33
2019-02-08T08:52:11.949Z,5.07
2019-02-08T08:55:16.402Z,3.97
2019-02-08T08:58:35.068Z,3.00
2019-02-08T09:01:58.409Z,5.60
2019-02-08T09:05:10.626Z,5.30
2019-02-08T09:08:33.013Z,6.67
2019-02-08T09:11:49.754Z,6.53
2019-02-08T09:15:05.305Z,6.80
2019-02-08T09:18:04.244Z,7.27
2019-02-08T09:21:22.855Z,5.77
2019-02-08T09:24:42.744Z,7.50
2019-02-08T09:27:50.179Z,8.43
2019-02-08T09:31:05.836Z,7.93
2019-02-08T09:34:32.473Z,7.73
2019-02-08T09:37:55.344Z,7.80
2019-02-08T09:41:20.010Z,7.63
2019-02-08T09:44:25.153Z,7.20
2019-02-08T09:47:30.549Z,7.60
2019-02-08T09:50:31.178Z,6.37
2019-02-08T09:53:42.391Z,8.57
2019-02-08T09:57:08.459Z,8.20
2019-02-08T10:00:22.570Z,6.83
2019-02-08T10:03:20.185Z,7.93
2019-02-08T10:06:42.754Z,8.20
2019-02-08T10:09:48.214Z,8.30
2019-02-08T10:13:22.980Z,8.57
2019-02-08T10:16:38.407Z,8.43
2019-02-08T10:19:44.896Z,8.30
2019-02-08T10:22:59.906Z,8.83
2019-02-08T10:26:17.245Z,8.43
2019-02-08T10:29:23.751Z,6.83
2019-02-08T10:32:30.988Z,8.23
2019-02-08T10:35:55.549Z,5.67
2019-02-08T10:39:12.974Z,9.70
2019-02-08T10:42:32.260Z,8.73
2019-02-08T10:45:35.494Z,9.47
2019-02-08T10:48:42.114Z,4.33
2019-02-08T10:52:06.508Z,5.63
2019-02-08T10:55:31.489Z,7.03
2019-02-08T10:58:38.015Z,9.40
2019-02-08T11:01:45.831Z,6.07
2019-02-08T11:05:24.043Z,10.33
2019-02-08T11:08:33.224Z,6.33
2019-02-08T11:11:56.711Z,8.80
2019-02-08T11:15:06.412Z,7.20
2019-02-08T11:18:20.190Z,8.53
2019-02-08T11:20:50.429Z,9.20
2019-02-08T11:23:20.106Z,6.80
2019-02-08T11:25:50.370Z,8.03
2019-02-08T11:28:20.287Z,8.93
2019-02-08T11:30:50.100Z,8.87
2019-02-08T11:33:20.200Z,8.37
2019-02-08T11:35:50.096Z,7.17
2019-02-08T11:38:19.734Z,8.43
2019-02-08T11:40:49.396Z,8.67
2019-02-08T11:43:19.088Z,6.90
2019-02-08T11:45:49.005Z,7.70
2019-02-08T11:48:18.926Z,8.03
2019-02-08T11:50:51.159Z,6.57
2019-02-08T11:53:21.529Z,7.53
2019-02-08T11:55:51.549Z,6.20
2019-02-08T11:58:22.014Z,7.37
2019-02-08T12:00:54.430Z,6.50
2019-02-08T12:03:25.252Z,7.00
2019-02-08T12:05:54.871Z,6.43
2019-02-08T12:08:24.657Z,6.97
2019-02-08T12:10:54.254Z,7.50
2019-02-08T12:13:24.086Z,3.70
2019-02-08T12:15:53.753Z,6.13
2019-02-08T12:18:23.858Z,6.87
2019-02-08T12:20:54.249Z,7.23
2019-02-08T12:23:24.311Z,2.50
2019-02-08T12:25:54.017Z,6.97
2019-02-08T12:28:23.614Z,6.43
2019-02-08T12:30:53.625Z,6.00
2019-02-08T12:33:23.418Z,7.10
2019-02-08T12:35:53.357Z,6.03
2019-02-08T12:38:23.066Z,4.37
2019-02-08T12:40:52.728Z,5.93
2019-02-08T12:43:22.526Z,4.17
2019-02-08T12:45:52.785Z,6.13
2019-02-08T12:48:21.838Z,6.00
2019-02-08T12:50:51.464Z,5.47
2019-02-08T12:53:21.487Z,5.53
2019-02-08T12:55:51.151Z,3.13
2019-02-08T12:58:21.215Z,5.80
2019-02-08T13:00:51.241Z,5.67
2019-02-08T13:03:21.023Z,5.23
2019-02-08T13:05:50.698Z,4.27
2019-02-08T13:08:20.787Z,4.17
2019-02-08T13:10:50.703Z,5.40
2019-02-08T13:13:20.610Z,4.80
2019-02-08T13:15:50.584Z,3.07
2019-02-08T13:18:20.540Z,5.07
2019-02-08T13:20:50.819Z,2.43
2019-02-08T13:23:20.805Z,2.33
2019-02-08T13:25:51.214Z,4.73
2019-02-08T13:28:21.082Z,4.63
2019-02-08T13:30:50.775Z,4.80
2019-02-08T13:33:20.631Z,2.53
2019-02-08T13:35:50.350Z,5.10
2019-02-08T13:38:20.325Z,4.30
2019-02-08T13:40:50.558Z,4.27
2019-02-08T13:43:20.613Z,4.40
2019-02-08T13:45:50.727Z,4.50
2019-02-08T13:48:20.790Z,3.30
2019-02-08T13:50:51.211Z,3.93
2019-02-08T13:53:21.057Z,4.03
2019-02-08T13:55:50.789Z,2.50
2019-02-08T13:58:21.505Z,4.03
2019-02-08T14:00:51.833Z,2.40
2019-02-08T14:03:21.661Z,3.03
2019-02-08T14:05:51.521Z,3.33
2019-02-08T14:08:22.133Z,3.50
2019-02-08T14:10:52.176Z,3.13
2019-02-08T14:13:24.905Z,3.17
2019-02-08T14:15:54.765Z,3.20
2019-02-08T14:18:24.809Z,1.87
2019-02-08T14:20:54.579Z,3.03
2019-02-08T14:23:24.657Z,2.70
2019-02-08T14:25:54.880Z,2.80
2019-02-08T14:28:24.766Z,3.10
2019-02-08T14:30:54.741Z,3.03
2019-02-08T14:33:24.862Z,2.60
2019-02-08T14:35:55.862Z,3.20
2019-02-08T14:38:25.555Z,2.40
2019-02-08T14:40:55.452Z,2.60
2019-02-08T14:43:25.776Z,2.97
2019-02-08T14:45:55.737Z,2.90
2019-02-08T14:48:25.355Z,2.27
2019-02-08T14:50:55.388Z,2.40
2019-02-08T14:53:25.383Z,2.50
2019-02-08T14:55:55.262Z,1.73
2019-02-08T14:58:24.940Z,2.77
2019-02-08T15:00:55.177Z,2.20
2019-02-08T15:03:24.938Z,2.30
2019-02-08T15:05:54.625Z,2.43
2019-02-08T15:08:24.591Z,2.07
2019-02-08T15:10:54.738Z,2.13
2019-02-08T15:13:24.689Z,2.50
2019-02-08T15:15:54.319Z,2.00
2019-02-08T15:18:24.254Z,2.20
2019-02-08T15:20:54.044Z,2.10
2019-02-08T15:23:23.937Z,2.00
2019-02-08T15:25:53.549Z,2.07
2019-02-08T15:28:23.211Z,1.97
2019-02-08T15:30:52.882Z,2.30
2019-02-08T15:33:22.570Z,2.30
2019-02-08T15:35:52.509Z,2.57
2019-02-08T15:38:22.215Z,2.63
2019-02-08T15:40:54.820Z,2.20
2019-02-08T15:43:25.154Z,2.20
2019-02-08T15:46:02.609Z,2.30
2019-02-08T15:48:32.728Z,1.83
2019-02-08T15:51:02.580Z,2.00
2019-02-08T15:53:32.192Z,1.97
2019-02-08T15:56:08.658Z,2.30
2019-02-08T15:58:38.815Z,1.90
2019-02-08T16:01:10.930Z,2.03
2019-02-08T16:08:07.838Z,2.10
2019-02-08T16:10:43.294Z,2.37
2019-02-08T16:13:12.882Z,2.27
2019-02-08T16:15:42.884Z,1.70
2019-02-08T16:18:13.117Z,2.30
2019-02-08T16:20:43.630Z,2.00
2019-02-08T16:23:15.404Z,2.13
2019-02-08T16:25:45.513Z,2.10
2019-02-08T16:28:15.779Z,2.27
2019-02-08T16:30:46.141Z,1.70
2019-02-08T16:33:16.281Z,2.00
2019-02-08T16:35:46.703Z,1.60
2019-02-08T16:38:16.715Z,2.20
2019-02-08T16:40:48.100Z,1.90
2019-02-08T16:43:18.505Z,2.03
2019-02-08T16:45:49.151Z,2.07
2019-02-08T16:48:20.825Z,2.30
2019-02-08T16:50:51.645Z,2.60
2019-02-08T16:53:21.558Z,2.20
2019-02-08T16:55:51.606Z,1.70
2019-02-08T16:58:21.625Z,2.00
2019-02-08T17:00:51.780Z,1.50
2019-02-08T17:03:22.393Z,2.10
2019-02-08T17:05:52.626Z,2.00
2019-02-08T17:08:22.568Z,1.97
2019-02-08T17:10:52.979Z,1.70
2019-02-08T17:13:23.049Z,1.60
2019-02-08T17:15:53.224Z,1.70
2019-02-08T17:18:23.690Z,2.40
2019-02-08T17:20:54.025Z,1.73
2019-02-08T17:23:24.369Z,1.90
2019-02-08T17:25:54.835Z,2.40
2019-02-08T17:28:24.968Z,2.07
2019-02-08T17:30:55.307Z,2.17
2019-02-08T17:33:26.744Z,2.30
2019-02-08T17:35:56.762Z,2.00
2019-02-08T17:38:46.648Z,2.47
2019-02-08T17:41:16.501Z,2.30
2019-02-08T17:43:46.289Z,2.40
2019-02-08T17:46:16.678Z,2.70
2019-02-08T17:48:46.490Z,2.43
2019-02-08T17:51:16.523Z,2.10
2019-02-08T17:53:47.096Z,2.17
2019-02-08T17:56:17.611Z,1.83
2019-02-08T17:58:48.040Z,1.83
2019-02-08T18:01:18.443Z,2.07
2019-02-08T18:03:48.292Z,1.87
2019-02-08T18:06:18.298Z,2.17
2019-02-08T18:08:48.921Z,2.60
2019-02-08T18:11:19.450Z,2.57
2019-02-08T18:13:49.581Z,2.50
2019-02-08T18:16:20.691Z,2.50
2019-02-08T18:18:50.678Z,2.30
2019-02-08T18:21:20.831Z,2.63
2019-02-08T18:23:51.937Z,2.00
2019-02-08T18:26:22.129Z,1.70
2019-02-08T18:28:53.335Z,2.03
2019-02-08T18:31:25.855Z,1.63
2019-02-08T18:33:56.480Z,2.20
2019-02-08T18:36:26.734Z,1.90
2019-02-08T18:38:57.389Z,2.20
2019-02-08T18:41:27.502Z,2.20
2019-02-08T18:44:02.967Z,2.10
2019-02-08T18:46:33.876Z,1.67
2019-02-08T18:49:09.344Z,2.33
2019-02-08T18:51:39.338Z,2.47
2019-02-08T18:54:09.313Z,2.03
2019-02-08T18:56:40.094Z,1.97
2019-02-08T18:59:10.141Z,2.13
2019-02-08T19:01:40.455Z,1.80
2019-02-08T19:04:11.617Z,2.20
2019-02-08T19:06:42.461Z,2.30
2019-02-08T19:09:12.358Z,1.77
2019-02-08T19:11:42.276Z,2.17
2019-02-08T19:14:12.680Z,2.30
2019-02-08T19:16:42.788Z,2.10
2019-02-08T19:19:12.971Z,1.90
2019-02-08T19:21:43.346Z,2.10
2019-02-08T19:24:13.790Z,2.00
2019-02-08T19:26:44.479Z,1.77
2019-02-08T19:29:14.334Z,1.63
2019-02-08T19:31:44.717Z,2.10
2019-02-08T19:34:15.193Z,2.27
2019-02-08T19:36:45.455Z,1.70
2019-02-08T19:39:15.564Z,1.90
2019-02-08T19:41:46.545Z,2.23
2019-02-08T19:44:17.020Z,1.57
2019-02-08T19:46:47.909Z,1.23
2019-02-08T19:49:29.849Z,2.03
2019-02-08T19:52:01.437Z,1.87
2019-02-08T19:54:31.573Z,2.00
2019-02-08T19:57:01.986Z,2.30
2019-02-08T19:59:32.447Z,1.47
2019-02-08T20:02:02.708Z,2.03
2019-02-08T20:04:33.269Z,2.37
2019-02-08T20:07:04.041Z,1.93
2019-02-08T20:09:34.637Z,2.63
2019-02-08T20:12:05.195Z,1.70
2019-02-08T20:14:35.462Z,2.87
2019-02-08T20:17:24.605Z,1.97
2019-02-08T20:19:56.301Z,2.00
2019-02-08T20:22:26.501Z,2.40
2019-02-08T20:24:56.832Z,2.23
2019-02-08T20:27:27.944Z,2.30
2019-02-08T20:29:58.858Z,2.00
2019-02-08T20:32:29.257Z,2.20
2019-02-08T20:35:00.777Z,2.50
2019-02-08T20:37:31.707Z,1.80
2019-02-08T20:40:02.983Z,1.90
2019-02-08T20:42:33.418Z,1.53
2019-02-08T20:45:03.608Z,2.10
2019-02-08T20:47:35.762Z,2.10
2019-02-08T20:50:08.290Z,0.93
2019-02-08T20:52:38.857Z,1.70
2019-02-08T20:55:08.809Z,2.00
2019-02-08T20:57:39.419Z,1.97
2019-02-08T21:00:20.372Z,2.07
2019-02-08T21:02:51.886Z,2.53
2019-02-08T21:05:22.619Z,2.10
2019-02-08T21:07:53.452Z,2.00
2019-02-08T21:10:23.430Z,1.90
2019-02-08T21:12:53.452Z,1.37
2019-02-08T21:15:24.206Z,2.83
2019-02-08T21:17:54.110Z,2.13
2019-02-08T21:20:24.667Z,1.10
2019-02-08T21:22:55.002Z,1.87
2019-02-08T21:25:26.840Z,2.03
2019-02-08T21:27:56.781Z,1.97
2019-02-08T21:30:27.119Z,1.97
2019-02-08T21:32:57.241Z,2.30
2019-02-08T21:35:27.185Z,2.30
2019-02-08T21:37:58.051Z,2.00
2019-02-08T21:40:28.400Z,1.70
2019-02-08T21:42:59.530Z,2.07
2019-02-08T21:45:31.245Z,2.07
2019-02-08T21:48:02.126Z,1.87
2019-02-08T21:50:34.234Z,2.10
2019-02-08T21:53:04.346Z,3.13
2019-02-08T21:55:34.420Z,1.63
2019-02-08T21:58:05.828Z,1.67
2019-02-08T22:00:37.792Z,1.80
2019-02-08T22:03:09.349Z,2.00
2019-02-08T22:05:45.248Z,1.60
2019-02-08T22:08:15.306Z,1.80
2019-02-08T22:10:45.259Z,1.67
2019-02-08T22:13:15.327Z,2.00
2019-02-08T22:15:45.386Z,2.37
2019-02-08T22:18:15.259Z,2.30
2019-02-08T22:20:45.420Z,1.73
2019-02-08T22:23:15.375Z,2.13
2019-02-08T22:25:45.358Z,2.00
2019-02-08T22:28:15.839Z,1.77
2019-02-08T22:30:46.308Z,1.43
2019-02-08T22:33:16.419Z,0.90
2019-02-08T22:35:46.497Z,1.30
2019-02-08T22:38:16.411Z,1.90
2019-02-08T22:40:46.439Z,1.93
2019-02-08T22:43:16.519Z,1.87
2019-02-08T22:45:46.490Z,2.17
2019-02-08T22:48:16.395Z,1.97
2019-02-08T22:50:47.387Z,1.60
2019-02-08T22:53:17.733Z,1.57
2019-02-08T22:55:47.821Z,1.17
2019-02-08T22:58:18.081Z,1.57
2019-02-08T23:01:27.519Z,1.83
2019-02-08T23:04:18.576Z,1.23
2019-02-08T23:06:48.508Z,1.80
2019-02-08T23:09:23.780Z,1.60
2019-02-08T23:11:53.478Z,1.43
2019-02-08T23:14:23.653Z,1.97
2019-02-08T23:16:53.895Z,2.20
2019-02-08T23:19:23.941Z,1.90
2019-02-08T23:21:55.243Z,2.07
2019-02-08T23:24:25.556Z,1.70
2019-02-08T23:26:56.132Z,2.03
2019-02-08T23:29:30.104Z,1.57
2019-02-08T23:31:58.182Z,1.20
2019-02-08T23:34:28.031Z,2.10
2019-02-08T23:36:58.398Z,1.53
2019-02-08T23:39:29.019Z,1.47
2019-02-08T23:41:58.825Z,1.57
2019-02-08T23:44:28.718Z,2.10
2019-02-08T23:47:17.881Z,1.70
2019-02-08T23:49:47.708Z,2.00
2019-02-08T23:52:17.592Z,1.77
2019-02-08T23:54:47.646Z,2.00
2019-02-08T23:57:17.654Z,1.80
2019-02-08T23:59:47.508Z,1.50
